createdAt,value
2022-10-22T00:01:30.815Z,18.05
2022-10-22T00:03:58.081Z,18.67
2022-10-22T00:06:25.605Z,17.17
2022-10-22T00:08:53.124Z,16.65
2022-10-22T00:11:20.748Z,17.05
2022-10-22T00:13:49.011Z,17.05
2022-10-22T00:16:16.320Z,16.02
2022-10-22T00:18:43.588Z,15.75
2022-10-22T00:21:11.424Z,16.55
2022-10-22T00:23:42.647Z,16.23
2022-10-22T00:26:10.977Z,16.13
2022-10-22T00:28:39.174Z,17.30
2022-10-22T00:31:06.539Z,14.75
2022-10-22T00:33:33.977Z,15.82
2022-10-22T00:36:01.322Z,17.30
2022-10-22T00:38:28.716Z,17.95
2022-10-22T00:40:56.096Z,15.07
2022-10-22T00:43:23.442Z,14.95
2022-10-22T00:45:50.774Z,15.35
2022-10-22T00:48:36.147Z,16.55
2022-10-22T00:51:06.419Z,15.23
2022-10-22T00:53:45.282Z,16.02
2022-10-22T00:56:12.903Z,15.43
2022-10-22T00:58:45.541Z,14.65
2022-10-22T01:01:21.915Z,15.40
2022-10-22T01:03:49.990Z,14.60
2022-10-22T01:06:33.201Z,14.50
2022-10-22T01:11:52.652Z,14.90
2022-10-22T01:14:28.604Z,13.25
2022-10-22T01:17:08.214Z,13.85
2022-10-22T01:20:13.326Z,13.77
2022-10-22T01:22:46.029Z,13.95
2022-10-22T01:25:35.593Z,13.48
2022-10-22T01:28:29.541Z,14.32
2022-10-22T01:30:59.591Z,13.98
2022-10-22T01:33:28.131Z,14.50
2022-10-22T01:35:56.282Z,13.85
2022-10-22T01:38:25.085Z,14.13
2022-10-22T01:40:52.918Z,13.30
2022-10-22T01:43:20.442Z,12.25
2022-10-22T01:45:51.765Z,15.27
2022-10-22T01:48:40.813Z,12.77
2022-10-22T01:51:38.895Z,13.23
2022-10-22T01:54:12.684Z,12.85
2022-10-22T01:56:57.172Z,12.70
2022-10-22T02:00:03.384Z,13.20
2022-10-22T02:03:00.761Z,12.73
2022-10-22T02:05:49.523Z,12.38
2022-10-22T02:08:31.021Z,12.27
2022-10-22T02:10:59.879Z,13.68
2022-10-22T02:13:47.393Z,14.68
2022-10-22T02:16:44.975Z,11.60
2022-10-22T02:19:31.172Z,12.50
2022-10-22T02:21:58.634Z,13.65
2022-10-22T02:24:26.005Z,12.20
2022-10-22T02:27:32.383Z,12.32
2022-10-22T02:30:05.586Z,12.07
2022-10-22T02:32:42.595Z,11.50
2022-10-22T02:35:15.137Z,11.27
2022-10-22T02:37:43.917Z,11.50
2022-10-22T02:40:11.929Z,12.90
2022-10-22T02:42:40.967Z,12.18
2022-10-22T02:45:09.091Z,11.65
2022-10-22T02:47:36.347Z,11.27
2022-10-22T02:50:06.562Z,12.45
2022-10-22T02:52:37.048Z,12.80
2022-10-22T02:55:06.066Z,13.43
2022-10-22T02:57:33.488Z,11.05
2022-10-22T03:00:00.803Z,12.20
2022-10-22T03:02:28.131Z,11.20
2022-10-22T03:04:55.380Z,12.70
2022-10-22T03:07:22.624Z,11.32
2022-10-22T03:09:49.930Z,10.45
2022-10-22T03:12:17.351Z,11.95
2022-10-22T03:14:44.638Z,11.85
2022-10-22T03:17:11.952Z,11.80
2022-10-22T03:19:39.207Z,11.25
2022-10-22T03:22:13.106Z,10.70
2022-10-22T03:24:44.380Z,11.85
2022-10-22T03:27:15.099Z,11.85
2022-10-22T03:29:43.465Z,10.50
2022-10-22T03:32:10.770Z,9.85
2022-10-22T03:34:37.999Z,10.82
2022-10-22T03:37:05.942Z,10.13
2022-10-22T03:39:35.414Z,9.38
2022-10-22T03:42:04.038Z,10.60
2022-10-22T03:44:32.475Z,9.95
2022-10-22T03:47:02.467Z,10.68
2022-10-22T03:49:30.264Z,9.70
2022-10-22T03:51:57.594Z,9.57
2022-10-22T03:54:24.957Z,9.70
2022-10-22T03:56:52.223Z,10.13
2022-10-22T03:59:19.512Z,10.57
2022-10-22T04:01:46.805Z,10.23
2022-10-22T04:04:14.061Z,10.32
2022-10-22T04:06:41.282Z,9.07
2022-10-22T04:09:08.687Z,8.90
2022-10-22T04:11:36.119Z,12.30
2022-10-22T04:14:03.590Z,9.60
2022-10-22T04:16:32.825Z,10.50
2022-10-22T04:19:00.083Z,9.10
2022-10-22T04:21:27.340Z,9.07
2022-10-22T04:23:54.616Z,10.50
2022-10-22T04:26:21.927Z,8.88
2022-10-22T04:28:51.243Z,9.88
2022-10-22T04:31:21.107Z,9.52
2022-10-22T04:33:52.942Z,8.55
2022-10-22T04:36:20.738Z,10.05
2022-10-22T04:38:52.263Z,10.00
2022-10-22T04:41:23.387Z,10.25
2022-10-22T04:43:51.207Z,8.63
2022-10-22T04:46:18.711Z,8.73
2022-10-22T04:48:46.626Z,8.73
2022-10-22T04:51:17.419Z,8.50
2022-10-22T04:53:45.553Z,8.55
2022-10-22T04:56:16.279Z,8.57
2022-10-22T04:58:44.332Z,7.85
2022-10-22T05:01:22.052Z,9.63
2022-10-22T05:03:51.469Z,7.95
2022-10-22T05:06:21.008Z,8.82
2022-10-22T05:08:51.988Z,8.30
2022-10-22T05:11:22.160Z,8.00
2022-10-22T05:13:49.586Z,7.85
2022-10-22T05:16:16.998Z,8.25
2022-10-22T05:18:45.446Z,11.48
2022-10-22T05:21:22.232Z,8.13
2022-10-22T05:23:50.723Z,7.28
2022-10-22T05:26:20.465Z,8.23
2022-10-22T05:28:49.529Z,7.85
2022-10-22T05:31:17.416Z,8.32
2022-10-22T05:33:46.406Z,7.25
2022-10-22T05:36:16.763Z,9.00
2022-10-22T05:38:44.368Z,8.23
2022-10-22T05:41:16.128Z,8.35
2022-10-22T05:43:44.024Z,7.05
2022-10-22T05:46:21.289Z,7.93
2022-10-22T05:49:07.911Z,8.20
2022-10-22T05:51:36.629Z,6.75
2022-10-22T05:54:06.425Z,7.78
2022-10-22T05:56:34.977Z,6.93
2022-10-22T06:01:33.114Z,8.15
2022-10-22T06:04:02.219Z,8.15
2022-10-22T06:06:34.243Z,7.97
2022-10-22T06:09:14.383Z,7.72
2022-10-22T06:11:41.754Z,7.38
2022-10-22T06:14:09.826Z,7.65
2022-10-22T06:16:37.650Z,8.30
2022-10-22T06:19:05.581Z,7.90
2022-10-22T06:21:33.098Z,7.88
2022-10-22T06:24:02.161Z,6.72
2022-10-22T06:26:30.048Z,6.03
2022-10-22T06:28:58.001Z,7.13
2022-10-22T06:31:27.227Z,6.38
2022-10-22T06:33:56.143Z,6.65
2022-10-22T06:36:24.768Z,7.25
2022-10-22T06:38:53.846Z,7.25
2022-10-22T06:41:24.344Z,7.60
2022-10-22T06:43:54.930Z,6.95
2022-10-22T06:46:23.021Z,6.88
2022-10-22T06:48:52.051Z,7.85
2022-10-22T06:51:21.213Z,6.72
2022-10-22T06:53:49.520Z,7.15
2022-10-22T06:56:19.658Z,7.35
2022-10-22T06:58:48.996Z,6.95
2022-10-22T07:01:18.963Z,9.20
2022-10-22T07:03:46.429Z,6.70
2022-10-22T07:06:15.240Z,7.15
2022-10-22T07:08:43.635Z,6.63
2022-10-22T07:11:24.096Z,6.90
2022-10-22T07:13:53.616Z,7.05
2022-10-22T07:16:21.350Z,6.22
2022-10-22T07:18:48.957Z,7.50
2022-10-22T07:21:18.102Z,6.47
2022-10-22T07:23:45.545Z,7.00
2022-10-22T07:26:15.201Z,6.72
2022-10-22T07:28:42.556Z,7.18
2022-10-22T07:31:11.650Z,6.20
2022-10-22T07:33:39.837Z,6.35
2022-10-22T07:36:10.329Z,6.78
2022-10-22T07:38:38.263Z,8.07
2022-10-22T07:41:05.754Z,6.93
2022-10-22T07:43:33.011Z,6.53
2022-10-22T07:46:00.503Z,8.35
2022-10-22T07:48:27.800Z,7.40
2022-10-22T07:50:55.569Z,6.88
2022-10-22T07:53:22.857Z,7.47
2022-10-22T07:55:53.716Z,6.88
2022-10-22T07:58:21.996Z,7.20
2022-10-22T08:00:50.742Z,6.78
2022-10-22T08:03:18.710Z,6.13
2022-10-22T08:05:46.178Z,5.97
2022-10-22T08:08:15.663Z,6.78
2022-10-22T08:10:43.754Z,5.97
2022-10-22T08:13:11.679Z,7.03
2022-10-22T08:15:39.224Z,6.50
2022-10-22T08:18:06.655Z,5.82
2022-10-22T08:20:34.001Z,7.55
2022-10-22T08:23:01.318Z,5.68
2022-10-22T08:25:28.661Z,7.57
2022-10-22T08:27:55.878Z,6.32
2022-10-22T08:30:23.323Z,6.40
2022-10-22T08:32:53.164Z,6.20
2022-10-22T08:35:22.044Z,6.93
2022-10-22T08:37:49.310Z,7.10
2022-10-22T08:40:33.509Z,6.07
2022-10-22T08:43:12.751Z,5.97
2022-10-22T08:45:51.211Z,5.43
2022-10-22T08:48:18.434Z,6.75
2022-10-22T08:50:48.580Z,7.30
2022-10-22T08:53:18.985Z,7.05
2022-10-22T08:55:47.236Z,5.85
2022-10-22T08:58:17.677Z,5.75
2022-10-22T09:00:52.360Z,5.70
2022-10-22T09:03:31.969Z,5.00
2022-10-22T09:06:07.901Z,5.90
2022-10-22T09:08:37.009Z,6.07
2022-10-22T09:11:18.862Z,5.57
2022-10-22T09:13:47.095Z,6.00
2022-10-22T09:16:37.952Z,6.82
2022-10-22T09:19:17.208Z,6.63
2022-10-22T09:21:56.855Z,6.03
2022-10-22T09:24:46.070Z,6.65
2022-10-22T09:27:16.380Z,5.22
2022-10-22T09:29:45.144Z,5.10
2022-10-22T09:32:12.858Z,5.13
2022-10-22T09:34:40.498Z,5.18
2022-10-22T09:37:09.508Z,5.53
2022-10-22T09:39:50.920Z,5.32
2022-10-22T09:42:20.387Z,5.78
2022-10-22T09:44:56.156Z,6.82
2022-10-22T09:47:43.478Z,4.93
2022-10-22T09:50:48.287Z,5.38
2022-10-22T09:53:30.222Z,5.75
2022-10-22T09:56:06.251Z,6.45
2022-10-22T09:58:46.165Z,5.88
2022-10-22T10:01:38.690Z,6.68
2022-10-22T10:04:10.042Z,6.15
2022-10-22T10:06:40.476Z,5.38
2022-10-22T10:09:22.765Z,4.85
2022-10-22T10:12:01.106Z,5.67
2022-10-22T10:14:31.102Z,4.70
2022-10-22T10:17:24.188Z,5.43
2022-10-22T10:20:21.386Z,5.28
2022-10-22T10:23:02.833Z,5.20
2022-10-22T10:25:58.070Z,5.20
2022-10-22T10:28:42.749Z,5.65
2022-10-22T10:31:09.987Z,5.30
2022-10-22T10:33:49.492Z,5.95
2022-10-22T10:36:32.241Z,6.25
2022-10-22T10:39:05.134Z,5.45
2022-10-22T10:41:37.030Z,5.68
2022-10-22T10:44:22.680Z,5.82
2022-10-22T10:47:01.819Z,5.72
2022-10-22T10:49:35.636Z,5.15
2022-10-22T10:52:26.949Z,6.15
2022-10-22T10:55:18.595Z,5.35
2022-10-22T10:57:55.458Z,5.63
2022-10-22T11:00:23.911Z,4.82
2022-10-22T11:03:21.009Z,5.53
2022-10-22T11:05:58.588Z,5.88
2022-10-22T11:08:35.381Z,5.55
2022-10-22T11:11:26.733Z,5.20
2022-10-22T11:14:03.755Z,4.93
2022-10-22T11:16:45.027Z,5.32
2022-10-22T11:19:50.167Z,4.63
2022-10-22T11:22:35.925Z,5.78
2022-10-22T11:25:15.231Z,4.28
2022-10-22T11:27:47.873Z,6.03
2022-10-22T11:30:21.616Z,5.72
2022-10-22T11:32:53.378Z,4.78
2022-10-22T11:35:42.447Z,5.50
2022-10-22T11:38:15.892Z,5.55
2022-10-22T11:41:18.954Z,4.90
2022-10-22T11:43:59.690Z,6.07
2022-10-22T11:46:49.670Z,5.65
2022-10-22T11:49:22.075Z,6.00
2022-10-22T11:51:50.390Z,5.13
2022-10-22T11:54:34.834Z,4.65
2022-10-22T11:57:14.437Z,5.30
2022-10-22T11:59:48.212Z,4.50
2022-10-22T12:02:30.861Z,4.78
2022-10-22T12:05:33.325Z,5.65
2022-10-22T12:08:18.242Z,4.45
2022-10-22T12:11:00.377Z,4.53
2022-10-22T12:13:33.919Z,5.78
2022-10-22T12:16:04.884Z,5.25
2022-10-22T12:18:41.894Z,4.80
2022-10-22T12:21:16.210Z,5.03
2022-10-22T12:23:44.875Z,5.15
2022-10-22T12:26:27.425Z,6.35
2022-10-22T12:28:59.539Z,5.00
2022-10-22T12:31:27.581Z,5.13
2022-10-22T12:34:01.168Z,4.65
2022-10-22T12:36:30.503Z,5.97
2022-10-22T12:39:02.178Z,5.57
2022-10-22T12:41:34.265Z,5.07
2022-10-22T12:44:04.581Z,4.37
2022-10-22T12:46:35.139Z,4.78
2022-10-22T12:49:06.941Z,4.88
2022-10-22T12:51:34.293Z,5.13
2022-10-22T12:54:08.313Z,5.53
2022-10-22T12:56:37.624Z,4.18
2022-10-22T12:59:14.970Z,4.35
2022-10-22T13:01:43.570Z,4.80
2022-10-22T13:04:16.850Z,5.40
2022-10-22T13:06:46.518Z,4.43
2022-10-22T13:09:23.724Z,4.40
2022-10-22T13:12:05.235Z,4.13
2022-10-22T13:14:35.366Z,4.13
2022-10-22T13:17:13.560Z,5.40
2022-10-22T13:20:01.685Z,4.25
2022-10-22T13:22:35.712Z,4.72
2022-10-22T13:25:14.973Z,4.20
2022-10-22T13:28:10.891Z,4.38
2022-10-22T13:30:39.910Z,5.35
2022-10-22T13:33:23.894Z,4.72
2022-10-22T13:35:51.129Z,4.28
2022-10-22T13:38:21.979Z,4.13
2022-10-22T13:40:49.534Z,4.85
2022-10-22T13:43:17.796Z,4.25
2022-10-22T13:45:46.720Z,6.20
2022-10-22T13:48:16.370Z,4.25
2022-10-22T13:50:43.724Z,4.88
2022-10-22T13:53:18.860Z,4.90
2022-10-22T13:55:46.638Z,4.30
2022-10-22T13:58:20.018Z,4.22
2022-10-22T14:00:51.119Z,4.47
2022-10-22T14:03:24.142Z,4.82
2022-10-22T14:08:23.201Z,5.45
2022-10-22T14:10:50.574Z,4.80
2022-10-22T14:13:20.023Z,4.72
2022-10-22T14:15:50.419Z,4.25
2022-10-22T14:18:26.400Z,4.30
2022-10-22T14:20:59.890Z,4.28
2022-10-22T14:23:29.729Z,5.13
2022-10-22T14:25:58.211Z,5.07
2022-10-22T14:28:25.494Z,4.70
2022-10-22T14:30:55.211Z,4.55
2022-10-22T14:33:30.564Z,4.72
2022-10-22T14:36:02.377Z,4.60
2022-10-22T14:38:29.893Z,4.88
2022-10-22T14:40:59.540Z,5.70
2022-10-22T14:43:28.642Z,4.78
2022-10-22T14:45:56.046Z,4.55
2022-10-22T14:48:24.007Z,4.53
2022-10-22T14:50:51.595Z,4.43
2022-10-22T14:53:18.916Z,4.35
2022-10-22T14:55:47.503Z,4.95
2022-10-22T14:58:15.360Z,4.57
2022-10-22T15:00:43.488Z,5.05
2022-10-22T15:03:11.680Z,4.50
2022-10-22T15:05:44.475Z,4.32
2022-10-22T15:08:14.195Z,4.90
2022-10-22T15:10:41.725Z,4.85
2022-10-22T15:13:09.186Z,4.85
2022-10-22T15:15:39.880Z,4.10
2022-10-22T15:18:07.858Z,4.65
2022-10-22T15:20:35.416Z,5.43
2022-10-22T15:23:02.833Z,5.13
2022-10-22T15:25:30.485Z,4.80
2022-10-22T15:28:01.815Z,4.65
2022-10-22T15:30:34.754Z,5.13
2022-10-22T15:33:02.337Z,4.40
2022-10-22T15:35:29.649Z,4.70
2022-10-22T15:37:56.999Z,4.20
2022-10-22T15:40:24.262Z,6.07
2022-10-22T15:42:51.453Z,4.38
2022-10-22T15:45:21.302Z,4.57
2022-10-22T15:47:48.995Z,4.72
2022-10-22T15:50:16.807Z,4.40
2022-10-22T15:52:44.064Z,4.35
2022-10-22T15:57:44.296Z,4.60
2022-10-22T16:00:12.723Z,5.50
2022-10-22T16:02:39.888Z,4.25
2022-10-22T16:05:07.746Z,4.35
2022-10-22T16:07:34.959Z,4.75
2022-10-22T16:10:02.226Z,4.38
2022-10-22T16:12:29.523Z,4.35
2022-10-22T16:14:56.777Z,5.00
2022-10-22T16:17:24.463Z,4.38
2022-10-22T16:19:51.772Z,5.88
2022-10-22T16:22:19.054Z,4.85
2022-10-22T16:24:46.395Z,4.78
2022-10-22T16:27:13.618Z,4.10
2022-10-22T16:29:40.993Z,4.43
2022-10-22T16:32:08.343Z,5.03
2022-10-22T16:34:35.627Z,4.32
2022-10-22T16:37:03.038Z,5.10
2022-10-22T16:39:30.401Z,5.05
2022-10-22T16:41:57.632Z,4.82
2022-10-22T16:44:24.959Z,3.90
2022-10-22T16:46:52.281Z,4.82
2022-10-22T16:49:19.571Z,5.15
2022-10-22T16:51:46.889Z,4.40
2022-10-22T16:54:15.905Z,5.32
2022-10-22T16:56:43.172Z,5.32
2022-10-22T16:59:10.452Z,5.05
2022-10-22T17:01:40.993Z,5.43
2022-10-22T17:04:09.327Z,4.45
2022-10-22T17:06:36.680Z,4.63
2022-10-22T17:09:04.539Z,4.70
2022-10-22T17:11:36.283Z,4.82
2022-10-22T17:14:06.003Z,4.28
2022-10-22T17:16:33.386Z,4.93
2022-10-22T17:19:04.123Z,4.60
2022-10-22T17:21:31.433Z,4.32
2022-10-22T17:23:59.060Z,4.72
2022-10-22T17:26:30.455Z,4.70
2022-10-22T17:28:57.995Z,4.85
2022-10-22T17:31:28.113Z,4.57
2022-10-22T17:33:56.714Z,4.45
2022-10-22T17:36:25.267Z,4.45
2022-10-22T17:38:55.142Z,5.03
2022-10-22T17:41:25.241Z,4.85
2022-10-22T17:43:52.591Z,4.88
2022-10-22T17:46:23.337Z,4.35
2022-10-22T17:49:13.658Z,5.43
2022-10-22T17:51:41.065Z,4.93
2022-10-22T17:54:09.992Z,4.97
2022-10-22T17:56:40.311Z,5.78
2022-10-22T17:59:09.771Z,4.78
2022-10-22T18:01:39.463Z,4.63
2022-10-22T18:04:08.614Z,4.70
2022-10-22T18:06:36.100Z,5.38
2022-10-22T18:09:05.831Z,5.47
2022-10-22T18:11:34.354Z,4.65
2022-10-22T18:14:01.639Z,4.82
2022-10-22T18:16:29.428Z,5.22
2022-10-22T18:18:57.383Z,5.18
2022-10-22T18:21:26.904Z,4.90
2022-10-22T18:23:55.319Z,4.30
2022-10-22T18:26:26.024Z,5.80
2022-10-22T18:28:55.331Z,4.57
2022-10-22T18:31:24.069Z,4.40
2022-10-22T18:33:51.607Z,4.78
2022-10-22T18:36:22.056Z,4.45
2022-10-22T18:38:50.526Z,4.50
2022-10-22T18:41:18.413Z,4.55
2022-10-22T18:43:56.888Z,6.63
2022-10-22T18:46:25.007Z,5.00
2022-10-22T18:48:56.812Z,5.03
2022-10-22T18:51:25.791Z,5.18
2022-10-22T18:54:05.338Z,5.53
2022-10-22T18:56:42.465Z,5.20
2022-10-22T18:59:19.764Z,5.95
2022-10-22T19:01:47.102Z,5.32
2022-10-22T19:04:14.708Z,5.50
2022-10-22T19:06:45.211Z,5.80
2022-10-22T19:09:15.977Z,6.13
2022-10-22T19:11:45.359Z,4.75
2022-10-22T19:14:19.293Z,7.22
2022-10-22T19:16:46.796Z,5.10
2022-10-22T19:19:17.915Z,5.47
2022-10-22T19:21:45.646Z,6.25
2022-10-22T19:24:15.112Z,5.10
2022-10-22T19:26:43.094Z,5.55
2022-10-22T19:29:13.391Z,4.88
2022-10-22T19:31:40.954Z,5.82
2022-10-22T19:34:08.387Z,5.40
2022-10-22T19:36:36.003Z,4.90
2022-10-22T19:39:04.734Z,6.25
2022-10-22T19:41:32.647Z,5.63
2022-10-22T19:44:01.170Z,5.20
2022-10-22T19:46:32.437Z,5.05
2022-10-22T19:49:01.577Z,5.70
2022-10-22T19:51:30.993Z,6.78
2022-10-22T19:54:03.633Z,5.82
2022-10-22T19:56:31.829Z,5.55
2022-10-22T19:58:59.515Z,5.47
2022-10-22T20:01:27.162Z,6.57
2022-10-22T20:03:54.652Z,5.35
2022-10-22T20:06:22.015Z,5.85
2022-10-22T20:08:52.334Z,5.47
2022-10-22T20:11:28.420Z,5.07
2022-10-22T20:13:56.740Z,5.18
2022-10-22T20:16:28.497Z,6.40
2022-10-22T20:18:58.975Z,6.20
2022-10-22T20:21:26.509Z,5.93
2022-10-22T20:23:56.401Z,5.50
2022-10-22T20:26:27.870Z,5.28
2022-10-22T20:28:56.669Z,5.82
2022-10-22T20:31:27.046Z,6.15
2022-10-22T20:34:00.030Z,5.75
2022-10-22T20:36:29.230Z,5.05
2022-10-22T20:39:02.436Z,5.80
2022-10-22T20:41:29.816Z,5.32
2022-10-22T20:43:57.101Z,5.50
2022-10-22T20:46:30.559Z,6.03
2022-10-22T20:49:06.216Z,7.03
2022-10-22T20:51:35.576Z,5.38
2022-10-22T20:54:03.883Z,5.72
2022-10-22T20:56:32.174Z,5.47
2022-10-22T20:59:05.903Z,5.70
2022-10-22T21:01:38.837Z,7.00
2022-10-22T21:04:07.005Z,6.63
2022-10-22T21:06:38.055Z,5.40
2022-10-22T21:09:07.028Z,6.13
2022-10-22T21:11:35.803Z,6.55
2022-10-22T21:14:04.762Z,6.18
2022-10-22T21:16:32.332Z,5.55
2022-10-22T21:18:59.849Z,6.45
2022-10-22T21:21:27.208Z,7.93
2022-10-22T21:23:54.535Z,5.85
2022-10-22T21:26:21.770Z,6.32
2022-10-22T21:28:49.195Z,6.70
2022-10-22T21:31:22.093Z,6.40
2022-10-22T21:33:50.519Z,5.85
2022-10-22T21:36:22.420Z,5.47
2022-10-22T21:38:55.098Z,5.57
2022-10-22T21:41:24.442Z,5.47
2022-10-22T21:43:52.137Z,5.75
2022-10-22T21:46:22.849Z,6.70
2022-10-22T21:48:55.042Z,5.60
2022-10-22T21:51:23.629Z,6.73
2022-10-22T21:56:27.374Z,6.28
2022-10-22T21:58:55.355Z,6.78
2022-10-22T22:01:23.110Z,6.07
2022-10-22T22:03:51.498Z,6.50
2022-10-22T22:06:21.982Z,6.05
2022-10-22T22:08:51.396Z,7.05
2022-10-22T22:11:22.469Z,6.18
2022-10-22T22:13:51.396Z,6.90
2022-10-22T22:16:27.051Z,6.00
2022-10-22T22:18:58.210Z,6.97
2022-10-22T22:21:25.922Z,7.03
2022-10-22T22:23:53.797Z,5.78
2022-10-22T22:26:28.309Z,6.32
2022-10-22T22:28:59.297Z,8.38
2022-10-22T22:31:29.438Z,6.53
2022-10-22T22:34:07.664Z,6.20
2022-10-22T22:36:41.023Z,6.28
2022-10-22T22:39:11.601Z,6.53
2022-10-22T22:41:39.395Z,6.30
2022-10-22T22:44:06.813Z,6.63
2022-10-22T22:46:34.189Z,6.13
2022-10-22T22:49:01.857Z,6.50
2022-10-22T22:51:29.117Z,7.18
2022-10-22T22:54:00.503Z,6.60
2022-10-22T22:56:30.046Z,7.18
2022-10-22T22:58:58.122Z,6.22
2022-10-22T23:01:27.055Z,6.63
2022-10-22T23:03:57.626Z,6.20
2022-10-22T23:06:27.204Z,5.85
2022-10-22T23:08:55.707Z,6.53
2022-10-22T23:11:24.957Z,7.10
2022-10-22T23:13:54.515Z,6.28
2022-10-22T23:16:23.800Z,6.60
2022-10-22T23:18:53.495Z,6.32
2022-10-22T23:21:23.979Z,6.82
2022-10-22T23:23:55.647Z,6.50
2022-10-22T23:26:26.406Z,6.07
2022-10-22T23:28:53.704Z,6.85
2022-10-22T23:31:21.826Z,6.65
2022-10-22T23:33:49.384Z,6.80
2022-10-22T23:36:16.593Z,7.07
2022-10-22T23:38:43.967Z,7.00
2022-10-22T23:41:11.198Z,7.05
2022-10-22T23:43:38.896Z,7.28
2022-10-22T23:46:08.291Z,6.57
2022-10-22T23:48:36.119Z,7.53
2022-10-22T23:51:14.633Z,6.13
2022-10-22T23:53:43.393Z,6.40
2022-10-22T23:56:15.998Z,9.60
2022-10-22T23:58:44.609Z,8.23
